sensor_id;sensor_type;location;lat;lon;timestamp;P1;durP1;ratioP1;P2;durP2;ratioP2
66979;SDS011;54048;51.468;-2.572;2022-12-08T00:01:38;53.33;;;26.30;;
66979;SDS011;54048;51.468;-2.572;2022-12-08T00:04:04;43.58;;;24.17;;
66979;SDS011;54048;51.468;-2.572;2022-12-08T00:06:30;50.30;;;24.75;;
66979;SDS011;54048;51.468;-2.572;2022-12-08T00:09:24;44.78;;;22.58;;
66979;SDS011;54048;51.468;-2.572;2022-12-08T00:14:28;45.60;;;22.45;;
66979;SDS011;54048;51.468;-2.572;2022-12-08T00:16:57;47.30;;;23.90;;
66979;SDS011;54048;51.468;-2.572;2022-12-08T00:19:24;45.95;;;23.90;;
66979;SDS011;54048;51.468;-2.572;2022-12-08T00:21:50;45.40;;;23.88;;
66979;SDS011;54048;51.468;-2.572;2022-12-08T00:24:16;49.40;;;25.35;;
66979;SDS011;54048;51.468;-2.572;2022-12-08T00:26:42;47.95;;;23.67;;
66979;SDS011;54048;51.468;-2.572;2022-12-08T00:29:08;44.28;;;23.70;;
66979;SDS011;54048;51.468;-2.572;2022-12-08T00:31:33;56.25;;;24.08;;
66979;SDS011;54048;51.468;-2.572;2022-12-08T00:33:59;54.03;;;24.38;;
66979;SDS011;54048;51.468;-2.572;2022-12-08T00:36:24;50.38;;;22.83;;
66979;SDS011;54048;51.468;-2.572;2022-12-08T00:38:50;48.60;;;22.50;;
66979;SDS011;54048;51.468;-2.572;2022-12-08T00:41:17;45.20;;;23.65;;
66979;SDS011;54048;51.468;-2.572;2022-12-08T00:44:04;46.53;;;22.70;;
66979;SDS011;54048;51.468;-2.572;2022-12-08T00:46:30;48.67;;;23.75;;
66979;SDS011;54048;51.468;-2.572;2022-12-08T00:48:55;47.65;;;24.05;;
66979;SDS011;54048;51.468;-2.572;2022-12-08T00:51:21;51.35;;;24.30;;
66979;SDS011;54048;51.468;-2.572;2022-12-08T00:53:46;48.72;;;23.67;;
66979;SDS011;54048;51.468;-2.572;2022-12-08T00:56:11;44.28;;;22.38;;
66979;SDS011;54048;51.468;-2.572;2022-12-08T00:58:37;44.60;;;21.63;;
66979;SDS011;54048;51.468;-2.572;2022-12-08T01:01:08;57.70;;;24.98;;
66979;SDS011;54048;51.468;-2.572;2022-12-08T01:03:34;45.10;;;22.08;;
66979;SDS011;54048;51.468;-2.572;2022-12-08T01:06:01;41.60;;;20.85;;
66979;SDS011;54048;51.468;-2.572;2022-12-08T01:08:27;42.58;;;21.10;;
66979;SDS011;54048;51.468;-2.572;2022-12-08T01:10:53;43.10;;;21.40;;
66979;SDS011;54048;51.468;-2.572;2022-12-08T01:13:18;46.03;;;24.08;;
66979;SDS011;54048;51.468;-2.572;2022-12-08T01:15:44;44.17;;;22.08;;
66979;SDS011;54048;51.468;-2.572;2022-12-08T01:18:09;45.63;;;22.33;;
66979;SDS011;54048;51.468;-2.572;2022-12-08T01:20:34;44.28;;;22.77;;
66979;SDS011;54048;51.468;-2.572;2022-12-08T01:23:00;47.17;;;21.90;;
66979;SDS011;54048;51.468;-2.572;2022-12-08T01:25:25;46.90;;;21.45;;
66979;SDS011;54048;51.468;-2.572;2022-12-08T01:27:51;46.33;;;22.70;;
66979;SDS011;54048;51.468;-2.572;2022-12-08T01:30:18;51.67;;;21.45;;
66979;SDS011;54048;51.468;-2.572;2022-12-08T01:32:44;43.30;;;20.67;;
66979;SDS011;54048;51.468;-2.572;2022-12-08T01:35:09;36.33;;;19.80;;
66979;SDS011;54048;51.468;-2.572;2022-12-08T01:37:35;34.90;;;19.42;;
66979;SDS011;54048;51.468;-2.572;2022-12-08T01:40:00;33.35;;;19.15;;
66979;SDS011;54048;51.468;-2.572;2022-12-08T01:42:25;38.17;;;19.83;;
66979;SDS011;54048;51.468;-2.572;2022-12-08T01:44:52;35.30;;;19.20;;
66979;SDS011;54048;51.468;-2.572;2022-12-08T01:47:22;37.60;;;18.90;;
66979;SDS011;54048;51.468;-2.572;2022-12-08T01:49:49;31.13;;;17.10;;
66979;SDS011;54048;51.468;-2.572;2022-12-08T01:52:22;39.30;;;18.27;;
66979;SDS011;54048;51.468;-2.572;2022-12-08T01:54:57;30.35;;;19.27;;
66979;SDS011;54048;51.468;-2.572;2022-12-08T01:57:30;38.50;;;18.95;;
66979;SDS011;54048;51.468;-2.572;2022-12-08T02:00:00;35.85;;;19.85;;
66979;SDS011;54048;51.468;-2.572;2022-12-08T02:02:30;36.35;;;18.90;;
66979;SDS011;54048;51.468;-2.572;2022-12-08T02:04:57;39.95;;;19.30;;
66979;SDS011;54048;51.468;-2.572;2022-12-08T02:07:23;38.03;;;19.05;;
66979;SDS011;54048;51.468;-2.572;2022-12-08T02:09:48;38.88;;;19.63;;
66979;SDS011;54048;51.468;-2.572;2022-12-08T02:12:14;34.33;;;19.38;;
66979;SDS011;54048;51.468;-2.572;2022-12-08T02:14:40;37.50;;;18.58;;
66979;SDS011;54048;51.468;-2.572;2022-12-08T02:20:12;33.88;;;17.40;;
66979;SDS011;54048;51.468;-2.572;2022-12-08T02:23:03;31.35;;;15.80;;
66979;SDS011;54048;51.468;-2.572;2022-12-08T02:25:48;32.65;;;17.95;;
66979;SDS011;54048;51.468;-2.572;2022-12-08T02:28:37;28.95;;;16.95;;
66979;SDS011;54048;51.468;-2.572;2022-12-08T02:31:35;32.42;;;16.52;;
66979;SDS011;54048;51.468;-2.572;2022-12-08T02:34:36;36.50;;;17.10;;
66979;SDS011;54048;51.468;-2.572;2022-12-08T02:37:17;36.28;;;16.83;;
66979;SDS011;54048;51.468;-2.572;2022-12-08T02:40:02;27.63;;;15.25;;
66979;SDS011;54048;51.468;-2.572;2022-12-08T02:45:38;27.63;;;15.57;;
66979;SDS011;54048;51.468;-2.572;2022-12-08T02:48:07;34.50;;;15.90;;
66979;SDS011;54048;51.468;-2.572;2022-12-08T02:50:33;25.10;;;14.52;;
66979;SDS011;54048;51.468;-2.572;2022-12-08T02:52:58;29.02;;;15.55;;
66979;SDS011;54048;51.468;-2.572;2022-12-08T02:55:26;25.98;;;14.98;;
66979;SDS011;54048;51.468;-2.572;2022-12-08T02:58:12;26.58;;;14.93;;
66979;SDS011;54048;51.468;-2.572;2022-12-08T03:09:17;29.20;;;15.25;;
66979;SDS011;54048;51.468;-2.572;2022-12-08T03:14:03;31.23;;;15.63;;
66979;SDS011;54048;51.468;-2.572;2022-12-08T03:16:31;29.17;;;16.25;;
66979;SDS011;54048;51.468;-2.572;2022-12-08T03:21:32;33.03;;;17.17;;
66979;SDS011;54048;51.468;-2.572;2022-12-08T03:23:58;36.00;;;17.27;;
66979;SDS011;54048;51.468;-2.572;2022-12-08T03:26:30;30.05;;;16.92;;
66979;SDS011;54048;51.468;-2.572;2022-12-08T03:29:00;31.27;;;17.10;;
66979;SDS011;54048;51.468;-2.572;2022-12-08T03:31:26;31.60;;;15.57;;
66979;SDS011;54048;51.468;-2.572;2022-12-08T03:33:54;26.83;;;15.60;;
66979;SDS011;54048;51.468;-2.572;2022-12-08T03:36:20;30.05;;;14.38;;
66979;SDS011;54048;51.468;-2.572;2022-12-08T03:38:48;23.80;;;13.50;;
66979;SDS011;54048;51.468;-2.572;2022-12-08T03:41:16;23.35;;;13.80;;
66979;SDS011;54048;51.468;-2.572;2022-12-08T03:43:43;31.90;;;13.55;;
66979;SDS011;54048;51.468;-2.572;2022-12-08T03:46:13;23.10;;;12.13;;
66979;SDS011;54048;51.468;-2.572;2022-12-08T03:48:39;26.13;;;14.35;;
66979;SDS011;54048;51.468;-2.572;2022-12-08T03:51:05;29.38;;;13.63;;
66979;SDS011;54048;51.468;-2.572;2022-12-08T03:53:30;22.17;;;12.82;;
66979;SDS011;54048;51.468;-2.572;2022-12-08T03:55:56;18.45;;;11.63;;
66979;SDS011;54048;51.468;-2.572;2022-12-08T03:58:21;24.83;;;12.57;;
66979;SDS011;54048;51.468;-2.572;2022-12-08T04:00:46;26.48;;;12.73;;
66979;SDS011;54048;51.468;-2.572;2022-12-08T04:03:12;27.67;;;13.00;;
66979;SDS011;54048;51.468;-2.572;2022-12-08T04:05:37;20.13;;;11.32;;
66979;SDS011;54048;51.468;-2.572;2022-12-08T04:08:02;23.65;;;11.95;;
66979;SDS011;54048;51.468;-2.572;2022-12-08T04:10:28;20.90;;;10.95;;
66979;SDS011;54048;51.468;-2.572;2022-12-08T04:12:55;25.02;;;12.23;;
66979;SDS011;54048;51.468;-2.572;2022-12-08T04:15:20;21.95;;;10.45;;
66979;SDS011;54048;51.468;-2.572;2022-12-08T04:17:46;21.75;;;11.73;;
66979;SDS011;54048;51.468;-2.572;2022-12-08T04:20:11;17.63;;;11.13;;
66979;SDS011;54048;51.468;-2.572;2022-12-08T04:22:37;19.80;;;11.18;;
66979;SDS011;54048;51.468;-2.572;2022-12-08T04:25:02;19.80;;;11.82;;
66979;SDS011;54048;51.468;-2.572;2022-12-08T04:27:27;25.77;;;11.35;;
66979;SDS011;54048;51.468;-2.572;2022-12-08T04:29:53;22.33;;;11.85;;
66979;SDS011;54048;51.468;-2.572;2022-12-08T04:32:18;18.90;;;11.10;;
66979;SDS011;54048;51.468;-2.572;2022-12-08T04:34:44;19.20;;;11.05;;
66979;SDS011;54048;51.468;-2.572;2022-12-08T04:37:09;16.15;;;9.65;;
66979;SDS011;54048;51.468;-2.572;2022-12-08T04:39:35;25.02;;;10.57;;
66979;SDS011;54048;51.468;-2.572;2022-12-08T04:42:00;19.35;;;10.70;;
66979;SDS011;54048;51.468;-2.572;2022-12-08T04:44:25;24.40;;;11.52;;
66979;SDS011;54048;51.468;-2.572;2022-12-08T04:46:51;21.13;;;9.93;;
66979;SDS011;54048;51.468;-2.572;2022-12-08T04:49:16;17.13;;;10.55;;
66979;SDS011;54048;51.468;-2.572;2022-12-08T04:51:42;19.35;;;10.48;;
66979;SDS011;54048;51.468;-2.572;2022-12-08T04:54:07;21.70;;;10.93;;
66979;SDS011;54048;51.468;-2.572;2022-12-08T04:56:32;16.88;;;11.27;;
66979;SDS011;54048;51.468;-2.572;2022-12-08T04:58:58;22.75;;;10.63;;
66979;SDS011;54048;51.468;-2.572;2022-12-08T05:01:23;22.30;;;12.13;;
66979;SDS011;54048;51.468;-2.572;2022-12-08T05:03:49;23.80;;;12.20;;
66979;SDS011;54048;51.468;-2.572;2022-12-08T05:06:14;26.23;;;12.93;;
66979;SDS011;54048;51.468;-2.572;2022-12-08T05:08:40;23.10;;;12.60;;
66979;SDS011;54048;51.468;-2.572;2022-12-08T05:11:06;29.70;;;12.77;;
66979;SDS011;54048;51.468;-2.572;2022-12-08T05:13:33;24.55;;;11.80;;
66979;SDS011;54048;51.468;-2.572;2022-12-08T05:16:02;21.05;;;11.45;;
66979;SDS011;54048;51.468;-2.572;2022-12-08T05:18:31;21.30;;;12.45;;
66979;SDS011;54048;51.468;-2.572;2022-12-08T05:20:57;17.92;;;10.82;;
66979;SDS011;54048;51.468;-2.572;2022-12-08T05:23:23;23.30;;;10.77;;
66979;SDS011;54048;51.468;-2.572;2022-12-08T05:25:48;20.52;;;10.63;;
66979;SDS011;54048;51.468;-2.572;2022-12-08T05:28:14;20.05;;;10.25;;
66979;SDS011;54048;51.468;-2.572;2022-12-08T05:30:39;17.98;;;9.13;;
66979;SDS011;54048;51.468;-2.572;2022-12-08T05:33:04;19.98;;;10.38;;
66979;SDS011;54048;51.468;-2.572;2022-12-08T05:35:30;22.55;;;9.40;;
66979;SDS011;54048;51.468;-2.572;2022-12-08T05:37:55;20.13;;;10.18;;
66979;SDS011;54048;51.468;-2.572;2022-12-08T05:40:21;16.88;;;9.55;;
66979;SDS011;54048;51.468;-2.572;2022-12-08T05:42:46;18.58;;;10.07;;
66979;SDS011;54048;51.468;-2.572;2022-12-08T05:45:11;16.60;;;10.10;;
66979;SDS011;54048;51.468;-2.572;2022-12-08T05:47:37;13.57;;;9.52;;
66979;SDS011;54048;51.468;-2.572;2022-12-08T05:50:03;17.50;;;9.82;;
66979;SDS011;54048;51.468;-2.572;2022-12-08T05:52:29;17.02;;;10.38;;
66979;SDS011;54048;51.468;-2.572;2022-12-08T05:54:54;18.30;;;9.63;;
66979;SDS011;54048;51.468;-2.572;2022-12-08T05:57:20;21.48;;;9.70;;
66979;SDS011;54048;51.468;-2.572;2022-12-08T05:59:45;16.42;;;10.07;;
66979;SDS011;54048;51.468;-2.572;2022-12-08T06:02:10;16.70;;;10.05;;
66979;SDS011;54048;51.468;-2.572;2022-12-08T06:04:36;22.67;;;10.02;;
66979;SDS011;54048;51.468;-2.572;2022-12-08T06:07:01;14.43;;;9.10;;
66979;SDS011;54048;51.468;-2.572;2022-12-08T06:09:27;21.75;;;9.40;;
66979;SDS011;54048;51.468;-2.572;2022-12-08T06:11:52;15.88;;;9.45;;
66979;SDS011;54048;51.468;-2.572;2022-12-08T06:14:17;15.93;;;9.30;;
66979;SDS011;54048;51.468;-2.572;2022-12-08T06:16:43;16.27;;;9.77;;
66979;SDS011;54048;51.468;-2.572;2022-12-08T06:19:08;18.27;;;8.82;;
66979;SDS011;54048;51.468;-2.572;2022-12-08T06:21:34;17.02;;;8.52;;
66979;SDS011;54048;51.468;-2.572;2022-12-08T06:23:59;14.85;;;7.97;;
66979;SDS011;54048;51.468;-2.572;2022-12-08T06:26:25;19.88;;;9.40;;
66979;SDS011;54048;51.468;-2.572;2022-12-08T06:28:50;17.08;;;8.68;;
66979;SDS011;54048;51.468;-2.572;2022-12-08T06:31:20;14.32;;;9.00;;
66979;SDS011;54048;51.468;-2.572;2022-12-08T06:33:47;17.10;;;9.95;;
66979;SDS011;54048;51.468;-2.572;2022-12-08T06:36:14;21.90;;;10.48;;
66979;SDS011;54048;51.468;-2.572;2022-12-08T06:38:40;17.00;;;10.35;;
66979;SDS011;54048;51.468;-2.572;2022-12-08T06:41:06;16.45;;;9.35;;
66979;SDS011;54048;51.468;-2.572;2022-12-08T06:43:32;14.00;;;8.13;;
66979;SDS011;54048;51.468;-2.572;2022-12-08T06:45:58;16.25;;;8.55;;
66979;SDS011;54048;51.468;-2.572;2022-12-08T06:48:24;13.80;;;8.10;;
66979;SDS011;54048;51.468;-2.572;2022-12-08T06:50:49;14.88;;;7.90;;
66979;SDS011;54048;51.468;-2.572;2022-12-08T06:53:15;14.68;;;8.68;;
66979;SDS011;54048;51.468;-2.572;2022-12-08T06:55:44;14.90;;;9.07;;
66979;SDS011;54048;51.468;-2.572;2022-12-08T06:58:12;17.70;;;9.73;;
66979;SDS011;54048;51.468;-2.572;2022-12-08T07:00:38;14.00;;;8.57;;
66979;SDS011;54048;51.468;-2.572;2022-12-08T07:03:05;18.58;;;10.00;;
66979;SDS011;54048;51.468;-2.572;2022-12-08T07:05:32;15.98;;;9.45;;
66979;SDS011;54048;51.468;-2.572;2022-12-08T07:07:57;12.57;;;7.80;;
66979;SDS011;54048;51.468;-2.572;2022-12-08T07:10:23;17.50;;;10.00;;
66979;SDS011;54048;51.468;-2.572;2022-12-08T07:12:48;17.17;;;9.73;;
66979;SDS011;54048;51.468;-2.572;2022-12-08T07:15:14;15.35;;;9.68;;
66979;SDS011;54048;51.468;-2.572;2022-12-08T07:17:39;14.40;;;7.93;;
66979;SDS011;54048;51.468;-2.572;2022-12-08T07:20:05;20.00;;;9.95;;
66979;SDS011;54048;51.468;-2.572;2022-12-08T07:22:31;15.68;;;8.55;;
66979;SDS011;54048;51.468;-2.572;2022-12-08T07:24:56;16.33;;;9.90;;
66979;SDS011;54048;51.468;-2.572;2022-12-08T07:27:21;17.80;;;9.75;;
66979;SDS011;54048;51.468;-2.572;2022-12-08T07:29:47;20.30;;;9.93;;
66979;SDS011;54048;51.468;-2.572;2022-12-08T07:32:12;17.77;;;10.20;;
66979;SDS011;54048;51.468;-2.572;2022-12-08T07:34:38;16.30;;;9.13;;
66979;SDS011;54048;51.468;-2.572;2022-12-08T07:37:03;18.52;;;10.75;;
66979;SDS011;54048;51.468;-2.572;2022-12-08T07:39:28;17.67;;;9.20;;
66979;SDS011;54048;51.468;-2.572;2022-12-08T07:41:54;18.10;;;9.27;;
66979;SDS011;54048;51.468;-2.572;2022-12-08T07:44:19;15.70;;;10.05;;
66979;SDS011;54048;51.468;-2.572;2022-12-08T07:46:45;17.58;;;9.73;;
66979;SDS011;54048;51.468;-2.572;2022-12-08T07:49:10;16.02;;;9.45;;
66979;SDS011;54048;51.468;-2.572;2022-12-08T07:51:36;16.90;;;10.75;;
66979;SDS011;54048;51.468;-2.572;2022-12-08T07:54:01;18.83;;;10.55;;
66979;SDS011;54048;51.468;-2.572;2022-12-08T07:56:27;22.75;;;10.85;;
66979;SDS011;54048;51.468;-2.572;2022-12-08T07:58:53;16.35;;;9.82;;
66979;SDS011;54048;51.468;-2.572;2022-12-08T08:01:19;20.65;;;10.63;;
66979;SDS011;54048;51.468;-2.572;2022-12-08T08:03:45;18.65;;;10.80;;
66979;SDS011;54048;51.468;-2.572;2022-12-08T08:06:10;20.70;;;11.52;;
66979;SDS011;54048;51.468;-2.572;2022-12-08T08:08:35;19.67;;;11.05;;
66979;SDS011;54048;51.468;-2.572;2022-12-08T08:11:05;25.55;;;11.30;;
66979;SDS011;54048;51.468;-2.572;2022-12-08T08:13:31;19.08;;;10.77;;
66979;SDS011;54048;51.468;-2.572;2022-12-08T08:16:01;18.10;;;10.50;;
66979;SDS011;54048;51.468;-2.572;2022-12-08T08:18:30;23.35;;;12.18;;
66979;SDS011;54048;51.468;-2.572;2022-12-08T08:20:55;24.08;;;12.43;;
66979;SDS011;54048;51.468;-2.572;2022-12-08T08:23:21;29.20;;;13.07;;
66979;SDS011;54048;51.468;-2.572;2022-12-08T08:25:46;27.13;;;12.02;;
66979;SDS011;54048;51.468;-2.572;2022-12-08T08:28:12;27.80;;;13.07;;
66979;SDS011;54048;51.468;-2.572;2022-12-08T08:30:37;22.65;;;13.32;;
66979;SDS011;54048;51.468;-2.572;2022-12-08T08:33:03;28.23;;;13.15;;
66979;SDS011;54048;51.468;-2.572;2022-12-08T08:35:28;30.55;;;13.80;;
66979;SDS011;54048;51.468;-2.572;2022-12-08T08:37:54;34.95;;;13.45;;
66979;SDS011;54048;51.468;-2.572;2022-12-08T08:40:20;21.30;;;12.48;;
66979;SDS011;54048;51.468;-2.572;2022-12-08T08:42:45;50.08;;;17.02;;
66979;SDS011;54048;51.468;-2.572;2022-12-08T08:45:11;34.45;;;16.27;;
66979;SDS011;54048;51.468;-2.572;2022-12-08T08:47:36;37.55;;;15.82;;
66979;SDS011;54048;51.468;-2.572;2022-12-08T08:50:01;29.90;;;15.20;;
66979;SDS011;54048;51.468;-2.572;2022-12-08T08:52:27;29.88;;;13.68;;
66979;SDS011;54048;51.468;-2.572;2022-12-08T08:54:53;23.17;;;12.40;;
66979;SDS011;54048;51.468;-2.572;2022-12-08T08:57:18;25.67;;;13.40;;
66979;SDS011;54048;51.468;-2.572;2022-12-08T08:59:44;24.75;;;13.13;;
66979;SDS011;54048;51.468;-2.572;2022-12-08T09:02:14;27.23;;;13.45;;
66979;SDS011;54048;51.468;-2.572;2022-12-08T09:04:41;20.52;;;12.23;;
66979;SDS011;54048;51.468;-2.572;2022-12-08T09:07:07;24.30;;;12.38;;
66979;SDS011;54048;51.468;-2.572;2022-12-08T09:09:32;24.33;;;13.52;;
66979;SDS011;54048;51.468;-2.572;2022-12-08T09:11:57;26.60;;;12.93;;
66979;SDS011;54048;51.468;-2.572;2022-12-08T09:14:23;28.90;;;14.35;;
66979;SDS011;54048;51.468;-2.572;2022-12-08T09:16:49;26.17;;;12.93;;
66979;SDS011;54048;51.468;-2.572;2022-12-08T09:19:14;28.17;;;13.93;;
66979;SDS011;54048;51.468;-2.572;2022-12-08T09:21:39;27.45;;;13.50;;
66979;SDS011;54048;51.468;-2.572;2022-12-08T09:24:05;25.77;;;13.27;;
66979;SDS011;54048;51.468;-2.572;2022-12-08T09:26:31;28.27;;;13.98;;
66979;SDS011;54048;51.468;-2.572;2022-12-08T09:28:56;24.80;;;13.45;;
66979;SDS011;54048;51.468;-2.572;2022-12-08T09:31:22;25.08;;;13.82;;
66979;SDS011;54048;51.468;-2.572;2022-12-08T09:33:48;30.92;;;15.48;;
66979;SDS011;54048;51.468;-2.572;2022-12-08T09:36:17;26.23;;;10.85;;
66979;SDS011;54048;51.468;-2.572;2022-12-08T09:38:42;21.42;;;10.38;;
66979;SDS011;54048;51.468;-2.572;2022-12-08T09:43:59;15.73;;;10.27;;
66979;SDS011;54048;51.468;-2.572;2022-12-08T09:48:53;13.70;;;9.38;;
66979;SDS011;54048;51.468;-2.572;2022-12-08T09:51:32;22.38;;;10.65;;
66979;SDS011;54048;51.468;-2.572;2022-12-08T09:56:42;17.15;;;9.55;;
66979;SDS011;54048;51.468;-2.572;2022-12-08T10:01:34;14.05;;;9.85;;
66979;SDS011;54048;51.468;-2.572;2022-12-08T10:04:48;22.75;;;10.57;;
66979;SDS011;54048;51.468;-2.572;2022-12-08T10:13:15;18.60;;;11.07;;
66979;SDS011;54048;51.468;-2.572;2022-12-08T10:18:35;17.85;;;10.57;;
66979;SDS011;54048;51.468;-2.572;2022-12-08T10:21:18;19.73;;;13.02;;
66979;SDS011;54048;51.468;-2.572;2022-12-08T10:23:47;20.23;;;12.63;;
66979;SDS011;54048;51.468;-2.572;2022-12-08T10:26:19;18.27;;;11.57;;
66979;SDS011;54048;51.468;-2.572;2022-12-08T10:28:45;16.75;;;10.45;;
66979;SDS011;54048;51.468;-2.572;2022-12-08T10:31:18;19.30;;;10.98;;
66979;SDS011;54048;51.468;-2.572;2022-12-08T10:33:58;17.25;;;8.77;;
66979;SDS011;54048;51.468;-2.572;2022-12-08T10:36:43;14.23;;;8.90;;
66979;SDS011;54048;51.468;-2.572;2022-12-08T10:39:39;13.13;;;8.65;;
66979;SDS011;54048;51.468;-2.572;2022-12-08T10:47:20;15.60;;;9.43;;
66979;SDS011;54048;51.468;-2.572;2022-12-08T10:49:46;17.83;;;10.55;;
66979;SDS011;54048;51.468;-2.572;2022-12-08T10:52:30;16.50;;;9.68;;
66979;SDS011;54048;51.468;-2.572;2022-12-08T10:57:21;21.67;;;10.60;;
66979;SDS011;54048;51.468;-2.572;2022-12-08T10:59:47;20.67;;;9.68;;
66979;SDS011;54048;51.468;-2.572;2022-12-08T11:02:19;18.67;;;9.35;;
66979;SDS011;54048;51.468;-2.572;2022-12-08T11:04:44;15.93;;;9.65;;
66979;SDS011;54048;51.468;-2.572;2022-12-08T11:07:10;15.05;;;9.32;;
66979;SDS011;54048;51.468;-2.572;2022-12-08T11:09:45;13.43;;;8.93;;
66979;SDS011;54048;51.468;-2.572;2022-12-08T11:12:19;15.30;;;10.23;;
66979;SDS011;54048;51.468;-2.572;2022-12-08T11:14:49;13.82;;;9.50;;
66979;SDS011;54048;51.468;-2.572;2022-12-08T11:22:36;17.42;;;9.90;;
66979;SDS011;54048;51.468;-2.572;2022-12-08T11:27:39;18.48;;;9.63;;
66979;SDS011;54048;51.468;-2.572;2022-12-08T11:30:14;15.38;;;9.95;;
66979;SDS011;54048;51.468;-2.572;2022-12-08T11:32:41;22.75;;;10.80;;
66979;SDS011;54048;51.468;-2.572;2022-12-08T11:35:09;18.85;;;10.00;;
66979;SDS011;54048;51.468;-2.572;2022-12-08T11:37:46;18.48;;;10.52;;
66979;SDS011;54048;51.468;-2.572;2022-12-08T11:40:16;14.55;;;9.38;;
66979;SDS011;54048;51.468;-2.572;2022-12-08T11:45:41;19.33;;;9.45;;
66979;SDS011;54048;51.468;-2.572;2022-12-08T11:50:42;13.25;;;8.93;;
66979;SDS011;54048;51.468;-2.572;2022-12-08T11:53:14;13.60;;;6.85;;
66979;SDS011;54048;51.468;-2.572;2022-12-08T11:55:51;14.60;;;6.45;;
66979;SDS011;54048;51.468;-2.572;2022-12-08T11:58:28;11.75;;;5.72;;
66979;SDS011;54048;51.468;-2.572;2022-12-08T12:01:00;10.45;;;5.20;;
66979;SDS011;54048;51.468;-2.572;2022-12-08T12:03:38;7.90;;;5.72;;
66979;SDS011;54048;51.468;-2.572;2022-12-08T12:08:52;8.18;;;4.72;;
66979;SDS011;54048;51.468;-2.572;2022-12-08T12:23:06;6.75;;;3.72;;
66979;SDS011;54048;51.468;-2.572;2022-12-08T12:25:35;9.02;;;3.30;;
66979;SDS011;54048;51.468;-2.572;2022-12-08T12:28:03;4.30;;;3.03;;
66979;SDS011;54048;51.468;-2.572;2022-12-08T12:30:49;7.00;;;3.10;;
66979;SDS011;54048;51.468;-2.572;2022-12-08T12:33:18;8.15;;;3.92;;
66979;SDS011;54048;51.468;-2.572;2022-12-08T12:35:44;7.07;;;4.43;;
66979;SDS011;54048;51.468;-2.572;2022-12-08T12:41:09;8.27;;;3.67;;
66979;SDS011;54048;51.468;-2.572;2022-12-08T12:43:36;6.20;;;3.92;;
66979;SDS011;54048;51.468;-2.572;2022-12-08T12:48:50;7.40;;;3.50;;
66979;SDS011;54048;51.468;-2.572;2022-12-08T12:51:41;7.47;;;3.63;;
66979;SDS011;54048;51.468;-2.572;2022-12-08T12:54:25;7.05;;;3.85;;
66979;SDS011;54048;51.468;-2.572;2022-12-08T12:56:53;6.87;;;3.50;;
66979;SDS011;54048;51.468;-2.572;2022-12-08T13:04:55;6.10;;;3.38;;
66979;SDS011;54048;51.468;-2.572;2022-12-08T13:10:17;6.57;;;3.03;;
66979;SDS011;54048;51.468;-2.572;2022-12-08T13:12:44;6.72;;;3.65;;
66979;SDS011;54048;51.468;-2.572;2022-12-08T13:15:18;12.55;;;4.35;;
66979;SDS011;54048;51.468;-2.572;2022-12-08T13:17:44;8.63;;;3.20;;
66979;SDS011;54048;51.468;-2.572;2022-12-08T13:20:17;8.43;;;3.90;;
66979;SDS011;54048;51.468;-2.572;2022-12-08T13:22:45;4.97;;;3.25;;
66979;SDS011;54048;51.468;-2.572;2022-12-08T13:30:54;11.55;;;3.20;;
66979;SDS011;54048;51.468;-2.572;2022-12-08T13:33:22;5.32;;;2.20;;
66979;SDS011;54048;51.468;-2.572;2022-12-08T13:36:25;5.85;;;1.92;;
66979;SDS011;54048;51.468;-2.572;2022-12-08T13:38:54;3.47;;;1.90;;
66979;SDS011;54048;51.468;-2.572;2022-12-08T13:41:23;3.42;;;1.30;;
66979;SDS011;54048;51.468;-2.572;2022-12-08T13:44:00;4.18;;;1.90;;
66979;SDS011;54048;51.468;-2.572;2022-12-08T13:49:15;2.28;;;1.27;;
66979;SDS011;54048;51.468;-2.572;2022-12-08T13:51:43;4.65;;;1.75;;
66979;SDS011;54048;51.468;-2.572;2022-12-08T13:54:17;3.55;;;1.60;;
66979;SDS011;54048;51.468;-2.572;2022-12-08T13:56:44;5.60;;;2.00;;
66979;SDS011;54048;51.468;-2.572;2022-12-08T14:01:45;4.80;;;1.83;;
66979;SDS011;54048;51.468;-2.572;2022-12-08T14:04:13;4.28;;;1.98;;
66979;SDS011;54048;51.468;-2.572;2022-12-08T14:06:41;9.70;;;1.75;;
66979;SDS011;54048;51.468;-2.572;2022-12-08T14:09:10;5.07;;;1.60;;
66979;SDS011;54048;51.468;-2.572;2022-12-08T14:11:38;4.80;;;1.85;;
66979;SDS011;54048;51.468;-2.572;2022-12-08T14:14:13;3.20;;;1.67;;
66979;SDS011;54048;51.468;-2.572;2022-12-08T14:16:43;6.90;;;1.60;;
66979;SDS011;54048;51.468;-2.572;2022-12-08T14:19:18;3.03;;;1.80;;
66979;SDS011;54048;51.468;-2.572;2022-12-08T14:21:55;4.55;;;1.98;;
66979;SDS011;54048;51.468;-2.572;2022-12-08T14:24:25;7.10;;;2.95;;
66979;SDS011;54048;51.468;-2.572;2022-12-08T14:26:52;4.00;;;2.05;;
66979;SDS011;54048;51.468;-2.572;2022-12-08T14:29:28;3.83;;;2.00;;
66979;SDS011;54048;51.468;-2.572;2022-12-08T14:31:57;4.60;;;2.40;;
66979;SDS011;54048;51.468;-2.572;2022-12-08T14:34:22;4.32;;;2.10;;
66979;SDS011;54048;51.468;-2.572;2022-12-08T14:36:48;7.60;;;2.05;;
66979;SDS011;54048;51.468;-2.572;2022-12-08T14:39:13;7.63;;;3.15;;
66979;SDS011;54048;51.468;-2.572;2022-12-08T14:41:39;6.13;;;2.80;;
66979;SDS011;54048;51.468;-2.572;2022-12-08T14:44:13;4.03;;;2.85;;
66979;SDS011;54048;51.468;-2.572;2022-12-08T14:47:06;9.48;;;3.25;;
66979;SDS011;54048;51.468;-2.572;2022-12-08T14:49:35;6.18;;;2.58;;
66979;SDS011;54048;51.468;-2.572;2022-12-08T14:52:02;5.18;;;3.17;;
66979;SDS011;54048;51.468;-2.572;2022-12-08T14:54:35;5.03;;;2.60;;
66979;SDS011;54048;51.468;-2.572;2022-12-08T14:57:02;18.35;;;11.02;;
66979;SDS011;54048;51.468;-2.572;2022-12-08T14:59:28;14.85;;;6.85;;
66979;SDS011;54048;51.468;-2.572;2022-12-08T15:02:12;6.65;;;3.60;;
66979;SDS011;54048;51.468;-2.572;2022-12-08T15:04:53;12.02;;;3.38;;
66979;SDS011;54048;51.468;-2.572;2022-12-08T15:07:53;11.02;;;3.58;;
66979;SDS011;54048;51.468;-2.572;2022-12-08T15:10:26;6.93;;;3.85;;
66979;SDS011;54048;51.468;-2.572;2022-12-08T15:12:55;9.15;;;4.70;;
66979;SDS011;54048;51.468;-2.572;2022-12-08T15:15:52;5.97;;;3.53;;
66979;SDS011;54048;51.468;-2.572;2022-12-08T15:21:01;10.75;;;3.53;;
66979;SDS011;54048;51.468;-2.572;2022-12-08T15:23:30;5.38;;;3.60;;
66979;SDS011;54048;51.468;-2.572;2022-12-08T15:25:57;7.07;;;3.95;;
66979;SDS011;54048;51.468;-2.572;2022-12-08T15:28:24;9.00;;;4.13;;
66979;SDS011;54048;51.468;-2.572;2022-12-08T15:30:51;9.05;;;3.50;;
66979;SDS011;54048;51.468;-2.572;2022-12-08T15:33:17;7.47;;;4.13;;
66979;SDS011;54048;51.468;-2.572;2022-12-08T15:35:43;10.05;;;3.67;;
66979;SDS011;54048;51.468;-2.572;2022-12-08T15:38:19;10.35;;;4.38;;
66979;SDS011;54048;51.468;-2.572;2022-12-08T15:40:47;9.60;;;4.20;;
66979;SDS011;54048;51.468;-2.572;2022-12-08T15:43:13;8.43;;;3.80;;
66979;SDS011;54048;51.468;-2.572;2022-12-08T15:45:38;9.45;;;4.35;;
66979;SDS011;54048;51.468;-2.572;2022-12-08T15:48:04;6.15;;;3.33;;
66979;SDS011;54048;51.468;-2.572;2022-12-08T15:50:30;6.90;;;4.22;;
66979;SDS011;54048;51.468;-2.572;2022-12-08T15:52:55;9.52;;;4.78;;
66979;SDS011;54048;51.468;-2.572;2022-12-08T15:55:20;6.53;;;4.53;;
66979;SDS011;54048;51.468;-2.572;2022-12-08T15:57:47;8.13;;;5.10;;
66979;SDS011;54048;51.468;-2.572;2022-12-08T16:00:23;10.70;;;5.55;;
66979;SDS011;54048;51.468;-2.572;2022-12-08T16:02:54;21.02;;;8.77;;
66979;SDS011;54048;51.468;-2.572;2022-12-08T16:05:20;33.55;;;12.90;;
66979;SDS011;54048;51.468;-2.572;2022-12-08T16:07:47;34.20;;;12.30;;
66979;SDS011;54048;51.468;-2.572;2022-12-08T16:10:16;27.27;;;10.15;;